Aviation Digital Data Service (ADDS)

Output produced by METARs form (1601 UTC 20 March 2019)
found at http://www.aviationweather.gov/metar/data/
 
METAR text: YBTL 201600Z AUTO 14007KT 9999 // SCT027 26/24 Q1009
Conditions at: YBTL (TOWNSVILLE(CIV/M, AU) observed 1600 UTC 20 March 2019
Temperature: 26.0°C (79°F)
Dewpoint: 24.0°C (75°F) [RH = 89%]
Pressure (altimeter): 29.79 inches Hg (1009.0 mb)
Winds: from the SE (140 degrees) at 8 MPH (7 knots; 3.6 m/s)
Visibility: 6 or more miles (10+ km)
Ceiling: at least 12,000 feet AGL
Clouds: scattered clouds at 2700 feet AGL
Weather: no significant weather observed at this time

METAR text: YBTL 201530Z AUTO 14007KT 9999 // SCT022 SCT040 26/24 Q1010
Conditions at: YBTL (TOWNSVILLE(CIV/M, AU) observed 1530 UTC 20 March 2019
Temperature: 26.0°C (79°F)
Dewpoint: 24.0°C (75°F) [RH = 89%]
Pressure (altimeter): 29.82 inches Hg (1010.0 mb)
Winds: from the SE (140 degrees) at 8 MPH (7 knots; 3.6 m/s)
Visibility: 6 or more miles (10+ km)
Ceiling: at least 12,000 feet AGL
Clouds: scattered clouds at 2200 feet AGL
scattered clouds at 4000 feet AGL
Weather: no significant weather observed at this time

METAR text: YBTL 201500Z AUTO 14007KT 9999 // SCT023 SCT057 SCT066 27/24 Q1010
Conditions at: YBTL (TOWNSVILLE(CIV/M, AU) observed 1500 UTC 20 March 2019
Temperature: 27.0°C (81°F)
Dewpoint: 24.0°C (75°F) [RH = 84%]
Pressure (altimeter): 29.82 inches Hg (1010.0 mb)
Winds: from the SE (140 degrees) at 8 MPH (7 knots; 3.6 m/s)
Visibility: 6 or more miles (10+ km)
Ceiling: at least 12,000 feet AGL
Clouds: scattered clouds at 2300 feet AGL
scattered clouds at 5700 feet AGL
scattered clouds at 6600 feet AGL
Weather: no significant weather observed at this time

METAR text: YBTL 201430Z AUTO 13006KT 9999 // SCT019 SCT025 BKN033 27/25 Q1011
Conditions at: YBTL (TOWNSVILLE(CIV/M, AU) observed 1430 UTC 20 March 2019
Temperature: 27.0°C (81°F)
Dewpoint: 25.0°C (77°F) [RH = 89%]
Pressure (altimeter): 29.85 inches Hg (1011.0 mb)
Winds: from the SE (130 degrees) at 7 MPH (6 knots; 3.1 m/s)
Visibility: 6 or more miles (10+ km)
Ceiling: 3300 feet AGL
Clouds: scattered clouds at 1900 feet AGL
scattered clouds at 2500 feet AGL
broken clouds at 3300 feet AGL
Weather: no significant weather observed at this time

METAR text: YBTL 201400Z AUTO 13007KT 9999 // NCD 27/24 Q1011
Conditions at: YBTL (TOWNSVILLE(CIV/M, AU) observed 1400 UTC 20 March 2019
Temperature: 27.0°C (81°F)
Dewpoint: 24.0°C (75°F) [RH = 84%]
Pressure (altimeter): 29.85 inches Hg (1011.0 mb)
Winds: from the SE (130 degrees) at 8 MPH (7 knots; 3.6 m/s)
Visibility: 6 or more miles (10+ km)
Ceiling: at least 12,000 feet AGL
Clouds: sky clear below 12,000 feet AGL
Weather: no significant weather observed at this time

METAR text: YBTL 201330Z AUTO 13007KT 9999 // NCD 27/24 Q1011
Conditions at: YBTL (TOWNSVILLE(CIV/M, AU) observed 1330 UTC 20 March 2019
Temperature: 27.0°C (81°F)
Dewpoint: 24.0°C (75°F) [RH = 84%]
Pressure (altimeter): 29.85 inches Hg (1011.0 mb)
Winds: from the SE (130 degrees) at 8 MPH (7 knots; 3.6 m/s)
Visibility: 6 or more miles (10+ km)
Ceiling: at least 12,000 feet AGL
Clouds: sky clear below 12,000 feet AGL
Weather: no significant weather observed at this time

METAR text: YBTL 201300Z AUTO 14006KT 9999 // BKN019 27/24 Q1011
Conditions at: YBTL (TOWNSVILLE(CIV/M, AU) observed 1300 UTC 20 March 2019
Temperature: 27.0°C (81°F)
Dewpoint: 24.0°C (75°F) [RH = 84%]
Pressure (altimeter): 29.85 inches Hg (1011.0 mb)
Winds: from the SE (140 degrees) at 7 MPH (6 knots; 3.1 m/s)
Visibility: 6 or more miles (10+ km)
Ceiling: 1900 feet AGL
Clouds: broken clouds at 1900 feet AGL
Weather: no significant weather observed at this time

METAR text: YBTL 201230Z AUTO 12007KT 9999 // SCT019 BKN032 28/24 Q1011
Conditions at: YBTL (TOWNSVILLE(CIV/M, AU) observed 1230 UTC 20 March 2019
Temperature: 28.0°C (82°F)
Dewpoint: 24.0°C (75°F) [RH = 79%]
Pressure (altimeter): 29.85 inches Hg (1011.0 mb)
Winds: from the ESE (120 degrees) at 8 MPH (7 knots; 3.6 m/s)
Visibility: 6 or more miles (10+ km)
Ceiling: 3200 feet AGL
Clouds: scattered clouds at 1900 feet AGL
broken clouds at 3200 feet AGL
Weather: no significant weather observed at this time

METAR text: YBTL 201200Z 08008KT 9999 FEW007 SCT019 BKN150 28/24 Q1011 NOSIG RMK USE TAF FOR ARRIVALS AFTER 1230Z
Conditions at: YBTL (TOWNSVILLE(CIV/M, AU) observed 1200 UTC 20 March 2019
Temperature: 28.0°C (82°F)
Dewpoint: 24.0°C (75°F) [RH = 79%]
Pressure (altimeter): 29.85 inches Hg (1011.0 mb)
Winds: from the E (80 degrees) at 9 MPH (8 knots; 4.1 m/s)
Visibility: 6 or more miles (10+ km)
Ceiling: 15000 feet AGL
Clouds: few clouds at 700 feet AGL
scattered clouds at 1900 feet AGL
broken clouds at 15000 feet AGL
Weather: no significant weather observed at this time

METAR text: YBTL 201130Z 08009KT 9999 SCT020 BKN150 28/24 Q1011 NOSIG RMK USE TAF FOR ARRIVALS AFTER 1230Z
Conditions at: YBTL (TOWNSVILLE(CIV/M, AU) observed 1130 UTC 20 March 2019
Temperature: 28.0°C (82°F)
Dewpoint: 24.0°C (75°F) [RH = 79%]
Pressure (altimeter): 29.85 inches Hg (1011.0 mb)
Winds: from the E (80 degrees) at 10 MPH (9 knots; 4.6 m/s)
Visibility: 6 or more miles (10+ km)
Ceiling: 15000 feet AGL
Clouds: scattered clouds at 2000 feet AGL
broken clouds at 15000 feet AGL
Weather: no significant weather observed at this time

METAR text: YBTL 201100Z 08009KT 9999 FEW020 BKN155 28/24 Q1011 NOSIG RMK USE TAF FOR ARRIVALS AFTER 1230Z
Conditions at: YBTL (TOWNSVILLE(CIV/M, AU) observed 1100 UTC 20 March 2019
Temperature: 28.0°C (82°F)
Dewpoint: 24.0°C (75°F) [RH = 79%]
Pressure (altimeter): 29.85 inches Hg (1011.0 mb)
Winds: from the E (80 degrees) at 10 MPH (9 knots; 4.6 m/s)
Visibility: 6 or more miles (10+ km)
Ceiling: 15500 feet AGL
Clouds: few clouds at 2000 feet AGL
broken clouds at 15500 feet AGL
Weather: no significant weather observed at this time

METAR text: YBTL 201030Z 10007KT 9999 FEW020 BKN155 27/24 Q1011 NOSIG RMK USE TAF FOR ARRIVALS AFTER 1230Z
Conditions at: YBTL (TOWNSVILLE(CIV/M, AU) observed 1030 UTC 20 March 2019
Temperature: 27.0°C (81°F)
Dewpoint: 24.0°C (75°F) [RH = 84%]
Pressure (altimeter): 29.85 inches Hg (1011.0 mb)
Winds: from the E (100 degrees) at 8 MPH (7 knots; 3.6 m/s)
Visibility: 6 or more miles (10+ km)
Ceiling: 15500 feet AGL
Clouds: few clouds at 2000 feet AGL
broken clouds at 15500 feet AGL
Weather: no significant weather observed at this time

METAR text: YBTL 201000Z 09009KT 9999 FEW020 BKN155 28/23 Q1010 NOSIG RMK USE TAF FOR ARRIVALS AFTER 1230Z
Conditions at: YBTL (TOWNSVILLE(CIV/M, AU) observed 1000 UTC 20 March 2019
Temperature: 28.0°C (82°F)
Dewpoint: 23.0°C (73°F) [RH = 74%]
Pressure (altimeter): 29.82 inches Hg (1010.0 mb)
Winds: from the E (90 degrees) at 10 MPH (9 knots; 4.6 m/s)
Visibility: 6 or more miles (10+ km)
Ceiling: 15500 feet AGL
Clouds: few clouds at 2000 feet AGL
broken clouds at 15500 feet AGL
Weather: no significant weather observed at this time

METAR text: YBTL 200930Z 09008KT 9999 SCT023 BKN150 28/24 Q1010 NOSIG
Conditions at: YBTL (TOWNSVILLE(CIV/M, AU) observed 0930 UTC 20 March 2019
Temperature: 28.0°C (82°F)
Dewpoint: 24.0°C (75°F) [RH = 79%]
Pressure (altimeter): 29.82 inches Hg (1010.0 mb)
Winds: from the E (90 degrees) at 9 MPH (8 knots; 4.1 m/s)
Visibility: 6 or more miles (10+ km)
Ceiling: 15000 feet AGL
Clouds: scattered clouds at 2300 feet AGL
broken clouds at 15000 feet AGL
Weather: no significant weather observed at this time

METAR text: YBTL 200900Z 08004KT 9999 FEW018 BKN155 27/24 Q1010 NOSIG
Conditions at: YBTL (TOWNSVILLE(CIV/M, AU) observed 0900 UTC 20 March 2019
Temperature: 27.0°C (81°F)
Dewpoint: 24.0°C (75°F) [RH = 84%]
Pressure (altimeter): 29.82 inches Hg (1010.0 mb)
Winds: from the E (80 degrees) at 5 MPH (4 knots; 2.1 m/s)
Visibility: 6 or more miles (10+ km)
Ceiling: 15500 feet AGL
Clouds: few clouds at 1800 feet AGL
broken clouds at 15500 feet AGL
Weather: no significant weather observed at this time

METAR text: YBTL 200830Z 11006KT 9999 FEW022 SCT155 28/24 Q1009 INTER 1030/1130 3000 SHRA BKN015
Conditions at: YBTL (TOWNSVILLE(CIV/M, AU) observed 0830 UTC 20 March 2019
Temperature: 28.0°C (82°F)
Dewpoint: 24.0°C (75°F) [RH = 79%]
Pressure (altimeter): 29.79 inches Hg (1009.0 mb)
Winds: from the ESE (110 degrees) at 7 MPH (6 knots; 3.1 m/s)
Visibility: 6 or more miles (10+ km)
Ceiling: at least 12,000 feet AGL
Clouds: few clouds at 2200 feet AGL
scattered clouds at 15500 feet AGL
Weather: no significant weather observed at this time

METAR text: YBTL 200800Z 06008KT 9999 FEW025 BKN230 28/24 Q1009 INTER 1000/1100 3000 SHRA BKN015
Conditions at: YBTL (TOWNSVILLE(CIV/M, AU) observed 0800 UTC 20 March 2019
Temperature: 28.0°C (82°F)
Dewpoint: 24.0°C (75°F) [RH = 79%]
Pressure (altimeter): 29.79 inches Hg (1009.0 mb)
Winds: from the ENE (60 degrees) at 9 MPH (8 knots; 4.1 m/s)
Visibility: 6 or more miles (10+ km)
Ceiling: 23000 feet AGL
Clouds: few clouds at 2500 feet AGL
broken clouds at 23000 feet AGL
Weather: no significant weather observed at this time

METAR text: YBTL 200730Z 07007KT 9999 FEW023 BKN230 29/24 Q1009 INTER 0900/1030 3000 SHRA BKN015
Conditions at: YBTL (TOWNSVILLE(CIV/M, AU) observed 0730 UTC 20 March 2019
Temperature: 29.0°C (84°F)
Dewpoint: 24.0°C (75°F) [RH = 74%]
Pressure (altimeter): 29.79 inches Hg (1009.0 mb)
Winds: from the ENE (70 degrees) at 8 MPH (7 knots; 3.6 m/s)
Visibility: 6 or more miles (10+ km)
Ceiling: 23000 feet AGL
Clouds: few clouds at 2300 feet AGL
broken clouds at 23000 feet AGL
Weather: no significant weather observed at this time

METAR text: YBTL 200700Z 07009KT 9999 FEW024 BKN230 29/24 Q1009 INTER 0800/1000 3000 SHRA BKN015
Conditions at: YBTL (TOWNSVILLE(CIV/M, AU) observed 0700 UTC 20 March 2019
Temperature: 29.0°C (84°F)
Dewpoint: 24.0°C (75°F) [RH = 74%]
Pressure (altimeter): 29.79 inches Hg (1009.0 mb)
Winds: from the ENE (70 degrees) at 10 MPH (9 knots; 4.6 m/s)
Visibility: 6 or more miles (10+ km)
Ceiling: 23000 feet AGL
Clouds: few clouds at 2400 feet AGL
broken clouds at 23000 feet AGL
Weather: no significant weather observed at this time

METAR text: YBTL 200630Z 05009KT 9999 FEW027 SCT230 29/23 Q1009 INTER 0700/0930 3000 SHRA BKN015
Conditions at: YBTL (TOWNSVILLE(CIV/M, AU) observed 0630 UTC 20 March 2019
Temperature: 29.0°C (84°F)
Dewpoint: 23.0°C (73°F) [RH = 70%]
Pressure (altimeter): 29.79 inches Hg (1009.0 mb)
Winds: from the NE (50 degrees) at 10 MPH (9 knots; 4.6 m/s)
Visibility: 6 or more miles (10+ km)
Ceiling: at least 12,000 feet AGL
Clouds: few clouds at 2700 feet AGL
scattered clouds at 23000 feet AGL
Weather: no significant weather observed at this time

METAR text: YBTL 200600Z 07008KT 9999 FEW024 SCT230 30/22 Q1009 INTER 0700/0900 3000 SHRA BKN015
Conditions at: YBTL (TOWNSVILLE(CIV/M, AU) observed 0600 UTC 20 March 2019
Temperature: 30.0°C (86°F)
Dewpoint: 22.0°C (72°F) [RH = 62%]
Pressure (altimeter): 29.79 inches Hg (1009.0 mb)
Winds: from the ENE (70 degrees) at 9 MPH (8 knots; 4.1 m/s)
Visibility: 6 or more miles (10+ km)
Ceiling: at least 12,000 feet AGL
Clouds: few clouds at 2400 feet AGL
scattered clouds at 23000 feet AGL
Weather: no significant weather observed at this time

METAR text: YBTL 200530Z 07008KT 9999 FEW020 SCT110 BKN230 29/24 Q1009 INTER 0630/0830 3000 SHRA BKN015
Conditions at: YBTL (TOWNSVILLE(CIV/M, AU) observed 0530 UTC 20 March 2019
Temperature: 29.0°C (84°F)
Dewpoint: 24.0°C (75°F) [RH = 74%]
Pressure (altimeter): 29.79 inches Hg (1009.0 mb)
Winds: from the ENE (70 degrees) at 9 MPH (8 knots; 4.1 m/s)
Visibility: 6 or more miles (10+ km)
Ceiling: 23000 feet AGL
Clouds: few clouds at 2000 feet AGL
scattered clouds at 11000 feet AGL
broken clouds at 23000 feet AGL
Weather: no significant weather observed at this time

METAR text: YBTL 200500Z 06013KT 9999 FEW010 SCT022 BKN125 29/24 Q1009 INTER 0600/0800 3000 SHRA BKN015
Conditions at: YBTL (TOWNSVILLE(CIV/M, AU) observed 0500 UTC 20 March 2019
Temperature: 29.0°C (84°F)
Dewpoint: 24.0°C (75°F) [RH = 74%]
Pressure (altimeter): 29.79 inches Hg (1009.0 mb)
Winds: from the ENE (60 degrees) at 15 MPH (13 knots; 6.7 m/s)
Visibility: 6 or more miles (10+ km)
Ceiling: 12500 feet AGL
Clouds: few clouds at 1000 feet AGL
scattered clouds at 2200 feet AGL
broken clouds at 12500 feet AGL
Weather: no significant weather observed at this time

METAR text: YBTL 200430Z 06011KT 9999 VCSH FEW020 SCT125 BKN230 30/24 Q1009 INTER 0430/0730 3000 SHRA BKN015
Conditions at: YBTL (TOWNSVILLE(CIV/M, AU) observed 0430 UTC 20 March 2019
Temperature: 30.0°C (86°F)
Dewpoint: 24.0°C (75°F) [RH = 70%]
Pressure (altimeter): 29.79 inches Hg (1009.0 mb)
Winds: from the ENE (60 degrees) at 13 MPH (11 knots; 5.7 m/s)
Visibility: 6 or more miles (10+ km)
Ceiling: 23000 feet AGL
Clouds: few clouds at 2000 feet AGL
scattered clouds at 12500 feet AGL
broken clouds at 23000 feet AGL
Weather: VCSH  (showers in vicinity)

METAR text: YBTL 200400Z 07011KT 9999 FEW020 BKN240 30/24 Q1009
Conditions at: YBTL (TOWNSVILLE(CIV/M, AU) observed 0400 UTC 20 March 2019
Temperature: 30.0°C (86°F)
Dewpoint: 24.0°C (75°F) [RH = 70%]
Pressure (altimeter): 29.79 inches Hg (1009.0 mb)
Winds: from the ENE (70 degrees) at 13 MPH (11 knots; 5.7 m/s)
Visibility: 6 or more miles (10+ km)
Ceiling: 24000 feet AGL
Clouds: few clouds at 2000 feet AGL
broken clouds at 24000 feet AGL
Weather: no significant weather observed at this time

METAR text: YBTL 200330Z 05011KT 9999 FEW022 BKN280 30/24 Q1010 INTER 0400/0630 3000 SHRA BKN015
Conditions at: YBTL (TOWNSVILLE(CIV/M, AU) observed 0330 UTC 20 March 2019
Temperature: 30.0°C (86°F)
Dewpoint: 24.0°C (75°F) [RH = 70%]
Pressure (altimeter): 29.82 inches Hg (1010.0 mb)
Winds: from the NE (50 degrees) at 13 MPH (11 knots; 5.7 m/s)
Visibility: 6 or more miles (10+ km)
Ceiling: 28000 feet AGL
Clouds: few clouds at 2200 feet AGL
broken clouds at 28000 feet AGL
Weather: no significant weather observed at this time

METAR text: YBTL 200300Z 06012KT 9999 FEW022 BKN280 30/24 Q1010 INTER 0400/0600 3000 SHRA BKN015
Conditions at: YBTL (TOWNSVILLE(CIV/M, AU) observed 0300 UTC 20 March 2019
Temperature: 30.0°C (86°F)
Dewpoint: 24.0°C (75°F) [RH = 70%]
Pressure (altimeter): 29.82 inches Hg (1010.0 mb)
Winds: from the ENE (60 degrees) at 14 MPH (12 knots; 6.2 m/s)
Visibility: 6 or more miles (10+ km)
Ceiling: 28000 feet AGL
Clouds: few clouds at 2200 feet AGL
broken clouds at 28000 feet AGL
Weather: no significant weather observed at this time

METAR text: YBTL 200230Z 06014KT 9999 FEW025 SCT280 31/24 Q1011 INTER 0330/0530 3000 SHRA BKN015
Conditions at: YBTL (TOWNSVILLE(CIV/M, AU) observed 0230 UTC 20 March 2019
Temperature: 31.0°C (88°F)
Dewpoint: 24.0°C (75°F) [RH = 66%]
Pressure (altimeter): 29.85 inches Hg (1011.0 mb)
Winds: from the ENE (60 degrees) at 16 MPH (14 knots; 7.2 m/s)
Visibility: 6 or more miles (10+ km)
Ceiling: at least 12,000 feet AGL
Clouds: few clouds at 2500 feet AGL
scattered clouds at 28000 feet AGL
Weather: no significant weather observed at this time

METAR text: YBTL 200200Z 07013KT 9999 VCSH FEW025 SCT300 31/24 Q1011 INTER 0300/0500 3000 SHRA BKN015
Conditions at: YBTL (TOWNSVILLE(CIV/M, AU) observed 0200 UTC 20 March 2019
Temperature: 31.0°C (88°F)
Dewpoint: 24.0°C (75°F) [RH = 66%]
Pressure (altimeter): 29.85 inches Hg (1011.0 mb)
Winds: from the ENE (70 degrees) at 15 MPH (13 knots; 6.7 m/s)
Visibility: 6 or more miles (10+ km)
Ceiling: at least 12,000 feet AGL
Clouds: few clouds at 2500 feet AGL
scattered clouds at 30000 feet AGL
Weather: VCSH  (showers in vicinity)

METAR text: YBTL 200130Z 06014KT 9999 FEW025 SCT300 31/24 Q1012 INTER 0300/0430 3000 SHRA BKN015
Conditions at: YBTL (TOWNSVILLE(CIV/M, AU) observed 0130 UTC 20 March 2019
Temperature: 31.0°C (88°F)
Dewpoint: 24.0°C (75°F) [RH = 66%]
Pressure (altimeter): 29.88 inches Hg (1012.0 mb)
Winds: from the ENE (60 degrees) at 16 MPH (14 knots; 7.2 m/s)
Visibility: 6 or more miles (10+ km)
Ceiling: at least 12,000 feet AGL
Clouds: few clouds at 2500 feet AGL
scattered clouds at 30000 feet AGL
Weather: no significant weather observed at this time

METAR text: YBTL 200100Z 07015KT 9999 SCT024 31/25 Q1011 INTER 0300/0400 3000 SHRA BKN015
Conditions at: YBTL (TOWNSVILLE(CIV/M, AU) observed 0100 UTC 20 March 2019
Temperature: 31.0°C (88°F)
Dewpoint: 25.0°C (77°F) [RH = 71%]
Pressure (altimeter): 29.85 inches Hg (1011.0 mb)
Winds: from the ENE (70 degrees) at 17 MPH (15 knots; 7.7 m/s)
Visibility: 6 or more miles (10+ km)
Ceiling: at least 12,000 feet AGL
Clouds: scattered clouds at 2400 feet AGL
Weather: no significant weather observed at this time

METAR text: YBTL 200030Z 08012KT 9999 SCT021 31/25 Q1012 INTER 0300/0330 3000 SHRA BKN015
Conditions at: YBTL (TOWNSVILLE(CIV/M, AU) observed 0030 UTC 20 March 2019
Temperature: 31.0°C (88°F)
Dewpoint: 25.0°C (77°F) [RH = 71%]
Pressure (altimeter): 29.88 inches Hg (1012.0 mb)
Winds: from the E (80 degrees) at 14 MPH (12 knots; 6.2 m/s)
Visibility: 6 or more miles (10+ km)
Ceiling: at least 12,000 feet AGL
Clouds: scattered clouds at 2100 feet AGL
Weather: no significant weather observed at this time

METAR text: YBTL 200000Z 08011KT 9999 SCT021 30/24 Q1012 INTER 0100/0300 3000 SHRA BKN015
Conditions at: YBTL (TOWNSVILLE(CIV/M, AU) observed 0000 UTC 20 March 2019
Temperature: 30.0°C (86°F)
Dewpoint: 24.0°C (75°F) [RH = 70%]
Pressure (altimeter): 29.88 inches Hg (1012.0 mb)
Winds: from the E (80 degrees) at 13 MPH (11 knots; 5.7 m/s)
Visibility: 6 or more miles (10+ km)
Ceiling: at least 12,000 feet AGL
Clouds: scattered clouds at 2100 feet AGL
Weather: no significant weather observed at this time

METAR text: YBTL 192330Z 09008KT 070V130 9999 FEW020 SCT025 30/24 Q1011 INTER 0100/0230 3000 SHRA BKN015
Conditions at: YBTL (TOWNSVILLE(CIV/M, AU) observed 2330 UTC 19 March 2019
Temperature: 30.0°C (86°F)
Dewpoint: 24.0°C (75°F) [RH = 70%]
Pressure (altimeter): 29.85 inches Hg (1011.0 mb)
Winds: from the E (90 degrees) at 9 MPH (8 knots; 4.1 m/s)
Visibility: 6 or more miles (10+ km)
Ceiling: at least 12,000 feet AGL
Clouds: few clouds at 2000 feet AGL
scattered clouds at 2500 feet AGL
Weather: no significant weather observed at this time

METAR text: YBTL 192300Z 13008KT 9999 FEW018 SCT025 30/25 Q1011 INTER 0100/0200 3000 SHRA BKN015
Conditions at: YBTL (TOWNSVILLE(CIV/M, AU) observed 2300 UTC 19 March 2019
Temperature: 30.0°C (86°F)
Dewpoint: 25.0°C (77°F) [RH = 75%]
Pressure (altimeter): 29.85 inches Hg (1011.0 mb)
Winds: from the SE (130 degrees) at 9 MPH (8 knots; 4.1 m/s)
Visibility: 6 or more miles (10+ km)
Ceiling: at least 12,000 feet AGL
Clouds: few clouds at 1800 feet AGL
scattered clouds at 2500 feet AGL
Weather: no significant weather observed at this time

METAR text: YBTL 192230Z 13009KT 9999 FEW018 SCT025 28/25 Q1011 INTER 0100/0130 3000 SHRA BKN015
Conditions at: YBTL (TOWNSVILLE(CIV/M, AU) observed 2230 UTC 19 March 2019
Temperature: 28.0°C (82°F)
Dewpoint: 25.0°C (77°F) [RH = 84%]
Pressure (altimeter): 29.85 inches Hg (1011.0 mb)
Winds: from the SE (130 degrees) at 10 MPH (9 knots; 4.6 m/s)
Visibility: 6 or more miles (10+ km)
Ceiling: at least 12,000 feet AGL
Clouds: few clouds at 1800 feet AGL
scattered clouds at 2500 feet AGL
Weather: no significant weather observed at this time

METAR text: YBTL 192200Z 15008KT 9999 FEW018 SCT320 28/25 Q1010 NOSIG
Conditions at: YBTL (TOWNSVILLE(CIV/M, AU) observed 2200 UTC 19 March 2019
Temperature: 28.0°C (82°F)
Dewpoint: 25.0°C (77°F) [RH = 84%]
Pressure (altimeter): 29.82 inches Hg (1010.0 mb)
Winds: from the SSE (150 degrees) at 9 MPH (8 knots; 4.1 m/s)
Visibility: 6 or more miles (10+ km)
Ceiling: at least 12,000 feet AGL
Clouds: few clouds at 1800 feet AGL
scattered clouds at 32000 feet AGL
Weather: no significant weather observed at this time

METAR text: YBTL 192130Z 13006KT 9999 FEW016 SCT320 27/25 Q1010 NOSIG
Conditions at: YBTL (TOWNSVILLE(CIV/M, AU) observed 2130 UTC 19 March 2019
Temperature: 27.0°C (81°F)
Dewpoint: 25.0°C (77°F) [RH = 89%]
Pressure (altimeter): 29.82 inches Hg (1010.0 mb)
Winds: from the SE (130 degrees) at 7 MPH (6 knots; 3.1 m/s)
Visibility: 6 or more miles (10+ km)
Ceiling: at least 12,000 feet AGL
Clouds: few clouds at 1600 feet AGL
scattered clouds at 32000 feet AGL
Weather: no significant weather observed at this time

METAR text: YBTL 192100Z 14004KT 9999 FEW014 BKN320 26/24 Q1009 NOSIG
Conditions at: YBTL (TOWNSVILLE(CIV/M, AU) observed 2100 UTC 19 March 2019
Temperature: 26.0°C (79°F)
Dewpoint: 24.0°C (75°F) [RH = 89%]
Pressure (altimeter): 29.79 inches Hg (1009.0 mb)
Winds: from the SE (140 degrees) at 5 MPH (4 knots; 2.1 m/s)
Visibility: 6 or more miles (10+ km)
Ceiling: 32000 feet AGL
Clouds: few clouds at 1400 feet AGL
broken clouds at 32000 feet AGL
Weather: no significant weather observed at this time

METAR text: YBTL 192030Z 14005KT 9999 FEW014 BKN320 25/24 Q1009 NOSIG
Conditions at: YBTL (TOWNSVILLE(CIV/M, AU) observed 2030 UTC 19 March 2019
Temperature: 25.0°C (77°F)
Dewpoint: 24.0°C (75°F) [RH = 94%]
Pressure (altimeter): 29.79 inches Hg (1009.0 mb)
Winds: from the SE (140 degrees) at 6 MPH (5 knots; 2.6 m/s)
Visibility: 6 or more miles (10+ km)
Ceiling: 32000 feet AGL
Clouds: few clouds at 1400 feet AGL
broken clouds at 32000 feet AGL
Weather: no significant weather observed at this time

METAR text: YBTL 192000Z AUTO 16006KT 9999 // SCT041 25/24 Q1009
Conditions at: YBTL (TOWNSVILLE(CIV/M, AU) observed 2000 UTC 19 March 2019
Temperature: 25.0°C (77°F)
Dewpoint: 24.0°C (75°F) [RH = 94%]
Pressure (altimeter): 29.79 inches Hg (1009.0 mb)
Winds: from the SSE (160 degrees) at 7 MPH (6 knots; 3.1 m/s)
Visibility: 6 or more miles (10+ km)
Ceiling: at least 12,000 feet AGL
Clouds: scattered clouds at 4100 feet AGL
Weather: no significant weather observed at this time

METAR text: YBTL 191930Z AUTO 15006KT 9999 // SCT041 25/24 Q1008
Conditions at: YBTL (TOWNSVILLE(CIV/M, AU) observed 1930 UTC 19 March 2019
Temperature: 25.0°C (77°F)
Dewpoint: 24.0°C (75°F) [RH = 94%]
Pressure (altimeter): 29.76 inches Hg (1008.0 mb)
Winds: from the SSE (150 degrees) at 7 MPH (6 knots; 3.1 m/s)
Visibility: 6 or more miles (10+ km)
Ceiling: at least 12,000 feet AGL
Clouds: scattered clouds at 4100 feet AGL
Weather: no significant weather observed at this time

METAR text: YBTL 191900Z AUTO 14006KT 9999 // NCD 25/24 Q1008
Conditions at: YBTL (TOWNSVILLE(CIV/M, AU) observed 1900 UTC 19 March 2019
Temperature: 25.0°C (77°F)
Dewpoint: 24.0°C (75°F) [RH = 94%]
Pressure (altimeter): 29.76 inches Hg (1008.0 mb)
Winds: from the SE (140 degrees) at 7 MPH (6 knots; 3.1 m/s)
Visibility: 6 or more miles (10+ km)
Ceiling: at least 12,000 feet AGL
Clouds: sky clear below 12,000 feet AGL
Weather: no significant weather observed at this time

METAR text: YBTL 191830Z AUTO 14006KT 9999 // NCD 25/24 Q1008
Conditions at: YBTL (TOWNSVILLE(CIV/M, AU) observed 1830 UTC 19 March 2019
Temperature: 25.0°C (77°F)
Dewpoint: 24.0°C (75°F) [RH = 94%]
Pressure (altimeter): 29.76 inches Hg (1008.0 mb)
Winds: from the SE (140 degrees) at 7 MPH (6 knots; 3.1 m/s)
Visibility: 6 or more miles (10+ km)
Ceiling: at least 12,000 feet AGL
Clouds: sky clear below 12,000 feet AGL
Weather: no significant weather observed at this time

METAR text: YBTL 191800Z AUTO 15006KT 9999 // NCD 25/24 Q1008
Conditions at: YBTL (TOWNSVILLE(CIV/M, AU) observed 1800 UTC 19 March 2019
Temperature: 25.0°C (77°F)
Dewpoint: 24.0°C (75°F) [RH = 94%]
Pressure (altimeter): 29.76 inches Hg (1008.0 mb)
Winds: from the SSE (150 degrees) at 7 MPH (6 knots; 3.1 m/s)
Visibility: 6 or more miles (10+ km)
Ceiling: at least 12,000 feet AGL
Clouds: sky clear below 12,000 feet AGL
Weather: no significant weather observed at this time

METAR text: YBTL 191730Z AUTO 18005KT 9999 // SCT020 SCT030 SCT042 26/24 Q1008
Conditions at: YBTL (TOWNSVILLE(CIV/M, AU) observed 1730 UTC 19 March 2019
Temperature: 26.0°C (79°F)
Dewpoint: 24.0°C (75°F) [RH = 89%]
Pressure (altimeter): 29.76 inches Hg (1008.0 mb)
Winds: from the S (180 degrees) at 6 MPH (5 knots; 2.6 m/s)
Visibility: 6 or more miles (10+ km)
Ceiling: at least 12,000 feet AGL
Clouds: scattered clouds at 2000 feet AGL
scattered clouds at 3000 feet AGL
scattered clouds at 4200 feet AGL
Weather: no significant weather observed at this time

METAR text: YBTL 191700Z AUTO 18005KT 9999 // NCD 25/24 Q1008
Conditions at: YBTL (TOWNSVILLE(CIV/M, AU) observed 1700 UTC 19 March 2019
Temperature: 25.0°C (77°F)
Dewpoint: 24.0°C (75°F) [RH = 94%]
Pressure (altimeter): 29.76 inches Hg (1008.0 mb)
Winds: from the S (180 degrees) at 6 MPH (5 knots; 2.6 m/s)
Visibility: 6 or more miles (10+ km)
Ceiling: at least 12,000 feet AGL
Clouds: sky clear below 12,000 feet AGL
Weather: no significant weather observed at this time

METAR text: YBTL 191630Z AUTO 25002KT 9999 // SCT033 SCT039 SCT046 25/24 Q1009
Conditions at: YBTL (TOWNSVILLE(CIV/M, AU) observed 1630 UTC 19 March 2019
Temperature: 25.0°C (77°F)
Dewpoint: 24.0°C (75°F) [RH = 94%]
Pressure (altimeter): 29.79 inches Hg (1009.0 mb)
Winds: from the WSW (250 degrees) at 2 MPH (2 knots; 1.0 m/s)
Visibility: 6 or more miles (10+ km)
Ceiling: at least 12,000 feet AGL
Clouds: scattered clouds at 3300 feet AGL
scattered clouds at 3900 feet AGL
scattered clouds at 4600 feet AGL
Weather: no significant weather observed at this time

METAR text: YBTL 191600Z AUTO 13004KT 9999 // SCT020 SCT025 SCT034 26/25 Q1009
Conditions at: YBTL (TOWNSVILLE(CIV/M, AU) observed 1600 UTC 19 March 2019
Temperature: 26.0°C (79°F)
Dewpoint: 25.0°C (77°F) [RH = 94%]
Pressure (altimeter): 29.79 inches Hg (1009.0 mb)
Winds: from the SE (130 degrees) at 5 MPH (4 knots; 2.1 m/s)
Visibility: 6 or more miles (10+ km)
Ceiling: at least 12,000 feet AGL
Clouds: scattered clouds at 2000 feet AGL
scattered clouds at 2500 feet AGL
scattered clouds at 3400 feet AGL
Weather: no significant weather observed at this time

METAR text: YBTL 191530Z AUTO 14006KT 9999 // SCT022 SCT033 BKN040 26/25 Q1010
Conditions at: YBTL (TOWNSVILLE(CIV/M, AU) observed 1530 UTC 19 March 2019
Temperature: 26.0°C (79°F)
Dewpoint: 25.0°C (77°F) [RH = 94%]
Pressure (altimeter): 29.82 inches Hg (1010.0 mb)
Winds: from the SE (140 degrees) at 7 MPH (6 knots; 3.1 m/s)
Visibility: 6 or more miles (10+ km)
Ceiling: 4000 feet AGL
Clouds: scattered clouds at 2200 feet AGL
scattered clouds at 3300 feet AGL
broken clouds at 4000 feet AGL
Weather: no significant weather observed at this time

METAR text: YBTL 191500Z AUTO 14006KT 9999 // SCT035 SCT043 26/25 Q1010
Conditions at: YBTL (TOWNSVILLE(CIV/M, AU) observed 1500 UTC 19 March 2019
Temperature: 26.0°C (79°F)
Dewpoint: 25.0°C (77°F) [RH = 94%]
Pressure (altimeter): 29.82 inches Hg (1010.0 mb)
Winds: from the SE (140 degrees) at 7 MPH (6 knots; 3.1 m/s)
Visibility: 6 or more miles (10+ km)
Ceiling: at least 12,000 feet AGL
Clouds: scattered clouds at 3500 feet AGL
scattered clouds at 4300 feet AGL
Weather: no significant weather observed at this time

METAR text: YBTL 191430Z AUTO 14007KT 9999 // SCT021 BKN029 BKN037 26/25 Q1010
Conditions at: YBTL (TOWNSVILLE(CIV/M, AU) observed 1430 UTC 19 March 2019
Temperature: 26.0°C (79°F)
Dewpoint: 25.0°C (77°F) [RH = 94%]
Pressure (altimeter): 29.82 inches Hg (1010.0 mb)
Winds: from the SE (140 degrees) at 8 MPH (7 knots; 3.6 m/s)
Visibility: 6 or more miles (10+ km)
Ceiling: 2900 feet AGL
Clouds: scattered clouds at 2100 feet AGL
broken clouds at 2900 feet AGL
broken clouds at 3700 feet AGL
Weather: no significant weather observed at this time

METAR text: YBTL 191400Z AUTO 17007KT 9999 // SCT022 BKN028 26/25 Q1011
Conditions at: YBTL (TOWNSVILLE(CIV/M, AU) observed 1400 UTC 19 March 2019
Temperature: 26.0°C (79°F)
Dewpoint: 25.0°C (77°F) [RH = 94%]
Pressure (altimeter): 29.85 inches Hg (1011.0 mb)
Winds: from the S (170 degrees) at 8 MPH (7 knots; 3.6 m/s)
Visibility: 6 or more miles (10+ km)
Ceiling: 2800 feet AGL
Clouds: scattered clouds at 2200 feet AGL
broken clouds at 2800 feet AGL
Weather: no significant weather observed at this time

METAR text: YBTL 191330Z AUTO 18004KT 9999 // SCT022 26/25 Q1011
Conditions at: YBTL (TOWNSVILLE(CIV/M, AU) observed 1330 UTC 19 March 2019
Temperature: 26.0°C (79°F)
Dewpoint: 25.0°C (77°F) [RH = 94%]
Pressure (altimeter): 29.85 inches Hg (1011.0 mb)
Winds: from the S (180 degrees) at 5 MPH (4 knots; 2.1 m/s)
Visibility: 6 or more miles (10+ km)
Ceiling: at least 12,000 feet AGL
Clouds: scattered clouds at 2200 feet AGL
Weather: no significant weather observed at this time

METAR text: YBTL 191300Z AUTO 17004KT 9999 // NCD 26/25 Q1011
Conditions at: YBTL (TOWNSVILLE(CIV/M, AU) observed 1300 UTC 19 March 2019
Temperature: 26.0°C (79°F)
Dewpoint: 25.0°C (77°F) [RH = 94%]
Pressure (altimeter): 29.85 inches Hg (1011.0 mb)
Winds: from the S (170 degrees) at 5 MPH (4 knots; 2.1 m/s)
Visibility: 6 or more miles (10+ km)
Ceiling: at least 12,000 feet AGL
Clouds: sky clear below 12,000 feet AGL
Weather: no significant weather observed at this time

METAR text: YBTL 191230Z AUTO 18005KT 9999 // NCD 26/25 Q1011
Conditions at: YBTL (TOWNSVILLE(CIV/M, AU) observed 1230 UTC 19 March 2019
Temperature: 26.0°C (79°F)
Dewpoint: 25.0°C (77°F) [RH = 94%]
Pressure (altimeter): 29.85 inches Hg (1011.0 mb)
Winds: from the S (180 degrees) at 6 MPH (5 knots; 2.6 m/s)
Visibility: 6 or more miles (10+ km)
Ceiling: at least 12,000 feet AGL
Clouds: sky clear below 12,000 feet AGL
Weather: no significant weather observed at this time

METAR text: YBTL 191200Z 17007KT 9999 FEW016 BKN215 26/25 Q1011 NOSIG RMK USE TAF FOR ARRIVALS AFTER 1230Z
Conditions at: YBTL (TOWNSVILLE(CIV/M, AU) observed 1200 UTC 19 March 2019
Temperature: 26.0°C (79°F)
Dewpoint: 25.0°C (77°F) [RH = 94%]
Pressure (altimeter): 29.85 inches Hg (1011.0 mb)
Winds: from the S (170 degrees) at 8 MPH (7 knots; 3.6 m/s)
Visibility: 6 or more miles (10+ km)
Ceiling: 21500 feet AGL
Clouds: few clouds at 1600 feet AGL
broken clouds at 21500 feet AGL
Weather: no significant weather observed at this time

METAR text: YBTL 191130Z 16005KT 9999 FEW016 BKN215 26/25 Q1012 NOSIG RMK USE TAF FOR ARRIVALS AFTER 1230Z
Conditions at: YBTL (TOWNSVILLE(CIV/M, AU) observed 1130 UTC 19 March 2019
Temperature: 26.0°C (79°F)
Dewpoint: 25.0°C (77°F) [RH = 94%]
Pressure (altimeter): 29.88 inches Hg (1012.0 mb)
Winds: from the SSE (160 degrees) at 6 MPH (5 knots; 2.6 m/s)
Visibility: 6 or more miles (10+ km)
Ceiling: 21500 feet AGL
Clouds: few clouds at 1600 feet AGL
broken clouds at 21500 feet AGL
Weather: no significant weather observed at this time

METAR text: YBTL 191100Z 14005KT 9999 FEW018 BKN215 26/25 Q1011 NOSIG RMK USE TAF FOR ARRIVALS AFTER 1030Z
Conditions at: YBTL (TOWNSVILLE(CIV/M, AU) observed 1100 UTC 19 March 2019
Temperature: 26.0°C (79°F)
Dewpoint: 25.0°C (77°F) [RH = 94%]
Pressure (altimeter): 29.85 inches Hg (1011.0 mb)
Winds: from the SE (140 degrees) at 6 MPH (5 knots; 2.6 m/s)
Visibility: 6 or more miles (10+ km)
Ceiling: 21500 feet AGL
Clouds: few clouds at 1800 feet AGL
broken clouds at 21500 feet AGL
Weather: no significant weather observed at this time

METAR text: YBTL 191030Z 13006KT 9999 FEW008 SCT020 BKN150 26/25 Q1011 NOSIG
Conditions at: YBTL (TOWNSVILLE(CIV/M, AU) observed 1030 UTC 19 March 2019
Temperature: 26.0°C (79°F)
Dewpoint: 25.0°C (77°F) [RH = 94%]
Pressure (altimeter): 29.85 inches Hg (1011.0 mb)
Winds: from the SE (130 degrees) at 7 MPH (6 knots; 3.1 m/s)
Visibility: 6 or more miles (10+ km)
Ceiling: 15000 feet AGL
Clouds: few clouds at 800 feet AGL
scattered clouds at 2000 feet AGL
broken clouds at 15000 feet AGL
Weather: no significant weather observed at this time

METAR text: YBTL 191000Z 16004KT 9999 FEW008 SCT020 BKN215 26/25 Q1011 NOSIG
Conditions at: YBTL (TOWNSVILLE(CIV/M, AU) observed 1000 UTC 19 March 2019
Temperature: 26.0°C (79°F)
Dewpoint: 25.0°C (77°F) [RH = 94%]
Pressure (altimeter): 29.85 inches Hg (1011.0 mb)
Winds: from the SSE (160 degrees) at 5 MPH (4 knots; 2.1 m/s)
Visibility: 6 or more miles (10+ km)
Ceiling: 21500 feet AGL
Clouds: few clouds at 800 feet AGL
scattered clouds at 2000 feet AGL
broken clouds at 21500 feet AGL
Weather: no significant weather observed at this time

METAR text: YBTL 190930Z 20005KT 9999 FEW018 SCT215 26/25 Q1010 NOSIG
Conditions at: YBTL (TOWNSVILLE(CIV/M, AU) observed 0930 UTC 19 March 2019
Temperature: 26.0°C (79°F)
Dewpoint: 25.0°C (77°F) [RH = 94%]
Pressure (altimeter): 29.82 inches Hg (1010.0 mb)
Winds: from the SSW (200 degrees) at 6 MPH (5 knots; 2.6 m/s)
Visibility: 6 or more miles (10+ km)
Ceiling: at least 12,000 feet AGL
Clouds: few clouds at 1800 feet AGL
scattered clouds at 21500 feet AGL
Weather: no significant weather observed at this time

METAR text: YBTL 190900Z 21005KT 9999 FEW008 BKN215 27/25 Q1010 INTER 1100/1200 3000 SHRA BKN012
Conditions at: YBTL (TOWNSVILLE(CIV/M, AU) observed 0900 UTC 19 March 2019
Temperature: 27.0°C (81°F)
Dewpoint: 25.0°C (77°F) [RH = 89%]
Pressure (altimeter): 29.82 inches Hg (1010.0 mb)
Winds: from the SSW (210 degrees) at 6 MPH (5 knots; 2.6 m/s)
Visibility: 6 or more miles (10+ km)
Ceiling: 21500 feet AGL
Clouds: few clouds at 800 feet AGL
broken clouds at 21500 feet AGL
Weather: no significant weather observed at this time

METAR text: YBTL 190830Z 19004KT 9999 FEW008 SCT021 BKN215 27/25 Q1009 INTER 1030/1130 3000 SHRA BKN012
Conditions at: YBTL (TOWNSVILLE(CIV/M, AU) observed 0830 UTC 19 March 2019
Temperature: 27.0°C (81°F)
Dewpoint: 25.0°C (77°F) [RH = 89%]
Pressure (altimeter): 29.79 inches Hg (1009.0 mb)
Winds: from the S (190 degrees) at 5 MPH (4 knots; 2.1 m/s)
Visibility: 6 or more miles (10+ km)
Ceiling: 21500 feet AGL
Clouds: few clouds at 800 feet AGL
scattered clouds at 2100 feet AGL
broken clouds at 21500 feet AGL
Weather: no significant weather observed at this time

METAR text: YBTL 190800Z 22005KT 9999 FEW008 SCT150 BKN210 27/25 Q1009 NOSIG
Conditions at: YBTL (TOWNSVILLE(CIV/M, AU) observed 0800 UTC 19 March 2019
Temperature: 27.0°C (81°F)
Dewpoint: 25.0°C (77°F) [RH = 89%]
Pressure (altimeter): 29.79 inches Hg (1009.0 mb)
Winds: from the SW (220 degrees) at 6 MPH (5 knots; 2.6 m/s)
Visibility: 6 or more miles (10+ km)
Ceiling: 21000 feet AGL
Clouds: few clouds at 800 feet AGL
scattered clouds at 15000 feet AGL
broken clouds at 21000 feet AGL
Weather: no significant weather observed at this time

METAR text: YBTL 190730Z 21005KT 9999 VCSH FEW006 SCT024 BKN200 27/25 Q1009 NOSIG
Conditions at: YBTL (TOWNSVILLE(CIV/M, AU) observed 0730 UTC 19 March 2019
Temperature: 27.0°C (81°F)
Dewpoint: 25.0°C (77°F) [RH = 89%]
Pressure (altimeter): 29.79 inches Hg (1009.0 mb)
Winds: from the SSW (210 degrees) at 6 MPH (5 knots; 2.6 m/s)
Visibility: 6 or more miles (10+ km)
Ceiling: 20000 feet AGL
Clouds: few clouds at 600 feet AGL
scattered clouds at 2400 feet AGL
broken clouds at 20000 feet AGL
Weather: VCSH  (showers in vicinity)

METAR text: YBTL 190700Z 20005KT 9999 FEW005 SCT024 BKN200 27/25 Q1009 NOSIG
Conditions at: YBTL (TOWNSVILLE(CIV/M, AU) observed 0700 UTC 19 March 2019
Temperature: 27.0°C (81°F)
Dewpoint: 25.0°C (77°F) [RH = 89%]
Pressure (altimeter): 29.79 inches Hg (1009.0 mb)
Winds: from the SSW (200 degrees) at 6 MPH (5 knots; 2.6 m/s)
Visibility: 6 or more miles (10+ km)
Ceiling: 20000 feet AGL
Clouds: few clouds at 500 feet AGL
scattered clouds at 2400 feet AGL
broken clouds at 20000 feet AGL
Weather: no significant weather observed at this time

METAR text: YBTL 190630Z 20006KT 9999 VCSH FEW005 SCT165 BKN210 27/24 Q1009 NOSIG
Conditions at: YBTL (TOWNSVILLE(CIV/M, AU) observed 0630 UTC 19 March 2019
Temperature: 27.0°C (81°F)
Dewpoint: 24.0°C (75°F) [RH = 84%]
Pressure (altimeter): 29.79 inches Hg (1009.0 mb)
Winds: from the SSW (200 degrees) at 7 MPH (6 knots; 3.1 m/s)
Visibility: 6 or more miles (10+ km)
Ceiling: 21000 feet AGL
Clouds: few clouds at 500 feet AGL
scattered clouds at 16500 feet AGL
broken clouds at 21000 feet AGL
Weather: VCSH  (showers in vicinity)

METAR text: YBTL 190600Z AUTO 18005KT 9999 -SHRA SCT050 SCT092 26/25 Q1009
Conditions at: YBTL (TOWNSVILLE(CIV/M, AU) observed 0600 UTC 19 March 2019
Temperature: 26.0°C (79°F)
Dewpoint: 25.0°C (77°F) [RH = 94%]
Pressure (altimeter): 29.79 inches Hg (1009.0 mb)
Winds: from the S (180 degrees) at 6 MPH (5 knots; 2.6 m/s)
Visibility: 6 or more miles (10+ km)
Ceiling: at least 12,000 feet AGL
Clouds: scattered clouds at 5000 feet AGL
scattered clouds at 9200 feet AGL
Weather: -SHRA  (light rain showers)

METAR text: YBTL 190530Z 21004KT 9999 -RA FEW006 BKN110 26/24 Q1009 NOSIG
Conditions at: YBTL (TOWNSVILLE(CIV/M, AU) observed 0530 UTC 19 March 2019
Temperature: 26.0°C (79°F)
Dewpoint: 24.0°C (75°F) [RH = 89%]
Pressure (altimeter): 29.79 inches Hg (1009.0 mb)
Winds: from the SSW (210 degrees) at 5 MPH (4 knots; 2.1 m/s)
Visibility: 6 or more miles (10+ km)
Ceiling: 11000 feet AGL
Clouds: few clouds at 600 feet AGL
broken clouds at 11000 feet AGL
Weather: -RA  (light rain)

METAR text: YBTL 190500Z 15005KT 130V200 9999 -SHRA FEW003 SCT020 BKN100 FEW020CB 25/23 Q1009 RETS NOSIG
Conditions at: YBTL (TOWNSVILLE(CIV/M, AU) observed 0500 UTC 19 March 2019
Temperature: 25.0°C (77°F)
Dewpoint: 23.0°C (73°F) [RH = 89%]
Pressure (altimeter): 29.79 inches Hg (1009.0 mb)
Winds: from the SSE (150 degrees) at 6 MPH (5 knots; 2.6 m/s)
Visibility: 6 or more miles (10+ km)
Ceiling: 10000 feet AGL
Clouds: few clouds at 300 feet AGL
scattered clouds at 2000 feet AGL
broken clouds at 10000 feet AGL
few clouds at 2000 feet AGL
Weather: -SHRA  (light rain showers)

METAR text: YBTL 190456Z 13006KT 9999 -TSRA FEW006 SCT019 BKN095 FEW020CB 25/23 Q1009 RETS FM0500 06014KT 9999 -SHRA FEW010 SCT022 SCT045
Conditions at: YBTL (TOWNSVILLE(CIV/M, AU) observed 0456 UTC 19 March 2019
Temperature: 25.0°C (77°F)
Dewpoint: 23.0°C (73°F) [RH = 89%]
Pressure (altimeter): 29.79 inches Hg (1009.0 mb)
Winds: from the SE (130 degrees) at 7 MPH (6 knots; 3.1 m/s)
Visibility: 6 or more miles (10+ km)
Ceiling: 9500 feet AGL
Clouds: few clouds at 600 feet AGL
scattered clouds at 1900 feet AGL
broken clouds at 9500 feet AGL
few clouds at 2000 feet AGL
Weather: -TSRA  (light rain associated with thunderstorm(s))

METAR text: YBTL 190430Z 10007KT 090V160 3000 -TSRA FEW020CB SCT024 BKN047 26/24 Q1009 FM0450 06014KT 9999 -SHRA FEW010 SCT022 SCT045 INTER 0450/0530 4000 SHRA BKN015
Conditions at: YBTL (TOWNSVILLE(CIV/M, AU) observed 0430 UTC 19 March 2019
Temperature: 26.0°C (79°F)
Dewpoint: 24.0°C (75°F) [RH = 89%]
Pressure (altimeter): 29.79 inches Hg (1009.0 mb)
Winds: from the E (100 degrees) at 8 MPH (7 knots; 3.6 m/s)
Visibility: 1.86 miles (2.99 km)
Ceiling: 4700 feet AGL
Clouds: few clouds at 2000 feet AGL
scattered clouds at 2400 feet AGL
broken clouds at 4700 feet AGL
Weather: -TSRA  (light rain associated with thunderstorm(s))

METAR text: YBTL 190412Z 09015KT 5000 -SHRA FEW009 SCT030 BKN054 FEW030TCU 27/24 Q1009 FM0430 06014KT 9999 -SHRA FEW010 SCT022 SCT045 INTER 0430/0530 4000 SHRA BKN015
Conditions at: YBTL (TOWNSVILLE(CIV/M, AU) observed 0412 UTC 19 March 2019
Temperature: 27.0°C (81°F)
Dewpoint: 24.0°C (75°F) [RH = 84%]
Pressure (altimeter): 29.79 inches Hg (1009.0 mb)
Winds: from the E (90 degrees) at 17 MPH (15 knots; 7.7 m/s)
Visibility: 3 miles ( 5 km)
Ceiling: 5400 feet AGL
Clouds: few clouds at 900 feet AGL
scattered clouds at 3000 feet AGL
broken clouds at 5400 feet AGL
few clouds at 3000 feet AGL
Weather: -SHRA  (light rain showers)

Forecast for: YBTL (TOWNSVILLE(CIV/M, AU)
Text: TAF YBTL 201050Z 2012/2112 12008KT 9999 -SHRA FEW008 SCT018 SCT040
Forecast period: 1200 UTC 20 March 2019 to 0100 UTC 21 March 2019
Forecast type: FROM: standard forecast or significant change
Winds: from the ESE (120 degrees) at 9 MPH (8 knots; 4.1 m/s)
Visibility: 6 or more miles 10+ km)
Ceiling: at least 12,000 feet AGL
Clouds: few clouds at 800 feet AGL
scattered clouds at 1800 feet AGL
scattered clouds at 4000 feet AGL
Weather: -SHRA  (light rain showers)
Text: FM210100 06014KT 9999 -SHRA SCT025
Forecast period: 0100 to 0900 UTC 21 March 2019
Forecast type: FROM: standard forecast or significant change
Winds: from the ENE (60 degrees) at 16 MPH (14 knots; 7.2 m/s)
Visibility: 6 or more miles 10+ km)
Ceiling: at least 12,000 feet AGL
Clouds: scattered clouds at 2500 feet AGL
Weather: -SHRA  (light rain showers)
Text: FM210900 12008KT 9999 -SHRA FEW008 SCT018 SCT040 INTER 2015/2112 3000 SHRA BKN015
Forecast period: 0900 to 1200 UTC 21 March 2019
Forecast type: FROM: standard forecast or significant change
Winds: from the ESE (120 degrees) at 9 MPH (8 knots; 4.1 m/s)
Visibility: 6 or more miles 10+ km)
Ceiling: at least 12,000 feet AGL
Clouds: few clouds at 800 feet AGL
scattered clouds at 1800 feet AGL
scattered clouds at 4000 feet AGL
Weather: -SHRA  (light rain showers)
Text:
Forecast period: 1500 UTC 20 March 2019 to 1200 UTC 21 March 2019
Forecast type: TEMPORARY: The following changes expected for less than half the time period
Visibility: 1.86 miles (2.99 km)
Ceiling: 1500 feet AGL
Clouds: broken clouds at 1500 feet AGL
Weather: SHRA  (rain showers)